Time;durP1;ratioP1;P1;durP2;ratioP2;P2;SDS_P1;SDS_P2;PMS_P1;PMS_P2;Temp;Humidity;BMP_temperature;BMP_pressure;BME280_temperature;BME280_humidity;BME280_pressure;Samples;Min_cycle;Max_cycle;Signal;HPM_P1;HPM_P2
2022/08/20 00:04:20;;;;;;;3.60;2.28;;;;;;;22.51;49.14;99769.41;10391935;28;20553;-60
2022/08/20 00:09:22;;;;;;;4.97;2.22;;;;;;;22.53;49.10;99760.25;10392854;28;20124;-60
2022/08/20 00:14:23;;;;;;;8.50;2.38;;;;;;;22.63;48.83;99768.88;10400143;28;20151;-60
2022/08/20 00:19:25;;;;;;;5.07;2.00;;;;;;;22.64;49.21;99769.69;10399226;28;20084;-59
2022/08/20 00:24:27;;;;;;;4.45;2.20;;;;;;;22.60;49.33;99779.03;10400382;28;20049;-59
2022/08/20 00:29:29;;;;;;;4.00;1.98;;;;;;;22.58;49.35;99776.53;10399289;28;20041;-59
2022/08/20 00:34:31;;;;;;;3.05;1.70;;;;;;;22.49;49.55;99777.59;10398940;28;20144;-59
2022/08/20 00:39:32;;;;;;;3.10;1.80;;;;;;;22.52;49.50;99782.56;10398871;28;20552;-59
2022/08/20 00:44:34;;;;;;;3.30;1.67;;;;;;;22.49;50.03;99779.41;10399012;28;20059;-60
2022/08/20 00:49:36;;;;;;;5.00;1.90;;;;;;;22.39;50.08;99784.91;10397362;28;20091;-59
2022/08/20 00:54:48;;;;;;;4.20;1.80;;;;;;;22.32;50.94;99778.63;10398313;28;20518;-60
2022/08/20 00:59:51;;;;;;;3.97;1.90;;;;;;;22.28;50.71;99777.28;10397059;28;20085;-59
2022/08/20 01:04:55;;;;;;;6.85;2.00;;;;;;;22.34;51.04;99786.44;10398432;28;20084;-59
2022/08/20 01:09:58;;;;;;;1.80;1.55;;;;;;;22.36;51.09;99787.09;10396831;28;20088;-60
2022/08/20 01:15:02;;;;;;;3.60;1.92;;;;;;;22.33;51.05;99790.13;10396452;28;20539;-59
2022/08/20 01:20:09;;;;;;;3.45;1.80;;;;;;;22.35;50.95;99798.78;10397507;28;20085;-59
2022/08/20 01:25:20;;;;;;;2.38;1.75;;;;;;;22.39;51.11;99798.22;10396214;28;20537;-59
2022/08/20 01:30:27;;;;;;;4.07;1.80;;;;;;;22.39;50.77;99794.75;10396907;28;20080;-59
2022/08/20 01:35:34;;;;;;;3.33;1.75;;;;;;;22.37;50.90;99792.25;10396589;28;20111;-59
2022/08/20 01:41:02;;;;;;;2.97;1.80;;;;;;;22.34;51.35;99786.44;10396442;28;20144;-59
2022/08/20 01:46:04;;;;;;;4.72;1.80;;;;;;;22.27;51.40;99794.25;10396277;28;20119;-59
2022/08/20 01:51:08;;;;;;;3.08;1.80;;;;;;;22.23;51.58;99795.59;10396142;28;20065;-60
2022/08/20 01:56:14;;;;;;;5.72;1.92;;;;;;;22.22;51.65;99793.97;10396260;28;20141;-59
2022/08/20 02:01:26;;;;;;;4.00;1.80;;;;;;;22.14;52.25;99803.78;10396136;28;20139;-59
2022/08/20 02:06:31;;;;;;;3.65;1.80;;;;;;;22.11;52.38;99809.47;10395703;28;20045;-59
2022/08/20 02:11:34;;;;;;;6.15;1.80;;;;;;;22.07;52.03;99810.81;10395543;28;20084;-59
2022/08/20 02:16:39;;;;;;;3.08;1.73;;;;;;;22.01;52.30;99803.41;10395241;28;20124;-60
2022/08/20 02:21:45;;;;;;;5.13;1.77;;;;;;;22.05;52.21;99807.47;10393232;28;20164;-59
2022/08/20 02:26:48;;;;;;;5.53;1.90;;;;;;;21.97;52.39;99805.59;10394743;28;20521;-59
2022/08/20 02:31:49;;;;;;;3.08;1.90;;;;;;;21.84;52.67;99797.28;10394480;28;20136;-59
2022/08/20 02:37:17;;;;;;;3.47;1.60;;;;;;;21.92;52.34;99799.94;10394675;28;20053;-59
2022/08/20 02:42:18;;;;;;;3.38;1.80;;;;;;;22.00;52.27;99804.44;10391544;28;20053;-59
2022/08/20 02:47:20;;;;;;;2.78;1.60;;;;;;;22.03;52.13;99802.28;10394258;28;20046;-59
2022/08/20 02:52:22;;;;;;;2.42;1.60;;;;;;;22.05;52.08;99802.16;10392613;28;20163;-59
2022/08/20 02:57:24;;;;;;;6.55;2.17;;;;;;;21.99;52.29;99795.59;10393808;28;20057;-59
2022/08/20 03:02:25;;;;;;;3.03;1.80;;;;;;;21.85;52.65;99801.59;10393582;28;20487;-59
2022/08/20 03:07:30;;;;;;;4.82;1.80;;;;;;;21.88;52.63;99795.97;10393406;28;20144;-59
2022/08/20 03:12:32;;;;;;;3.05;1.70;;;;;;;21.88;52.46;99803.94;10393323;28;20056;-59
2022/08/20 03:17:34;;;;;;;4.40;1.73;;;;;;;21.87;52.64;99799.59;10393196;28;20440;-59
2022/08/20 03:22:35;;;;;;;4.40;1.70;;;;;;;21.85;52.81;99801.59;10392831;28;20399;-59
2022/08/20 03:27:37;;;;;;;2.90;1.65;;;;;;;21.95;52.64;99809.41;10392680;28;20057;-59
2022/08/20 03:32:40;;;;;;;3.50;2.30;;;;;;;21.90;53.33;99812.59;10393158;28;20579;-59
2022/08/20 03:37:42;;;;;;;3.38;2.33;;;;;;;21.75;53.63;99812.44;10392515;28;20045;-59
2022/08/20 03:42:51;;;;;;;5.13;2.40;;;;;;;21.87;53.59;99812.91;10392304;28;20115;-59
2022/08/20 03:47:54;;;;;;;5.20;2.72;;;;;;;21.78;53.42;99824.59;10399307;28;20441;-59
2022/08/20 03:52:57;;;;;;;3.88;2.20;;;;;;;21.87;53.28;99820.91;10400732;28;20068;-59
2022/08/20 03:58:01;;;;;;;3.10;2.10;;;;;;;21.87;53.30;99819.09;10400359;28;20137;-59
2022/08/20 04:03:07;;;;;;;3.30;1.90;;;;;;;21.80;53.58;99819.94;10400088;28;20053;-59
2022/08/20 04:08:25;;;;;;;4.53;1.98;;;;;;;21.77;53.86;99822.91;10400379;28;20056;-59
2022/08/20 04:13:28;;;;;;;2.65;1.70;;;;;;;21.74;53.72;99821.41;10400016;28;20085;-59
2022/08/20 04:18:31;;;;;;;4.00;1.90;;;;;;;21.72;53.79;99825.25;10382158;28;20395;-59
2022/08/20 04:23:33;;;;;;;3.15;1.75;;;;;;;21.75;53.99;99830.22;10399102;28;20509;-59
2022/08/20 04:28:35;;;;;;;2.95;1.83;;;;;;;21.65;54.38;99840.19;10400189;28;20045;-59
2022/08/20 04:33:36;;;;;;;2.67;1.80;;;;;;;21.50;54.85;99844.47;10399373;28;20049;-60
2022/08/20 04:38:39;;;;;;;2.90;1.90;;;;;;;21.46;55.11;99830.69;10398793;28;20231;-60
2022/08/20 04:43:53;;;;;;;4.57;2.00;;;;;;;21.46;55.10;99832.50;10397984;28;20048;-60
2022/08/20 04:48:56;;;;;;;4.43;1.90;;;;;;;21.46;55.07;99836.00;10397379;28;20501;-60
2022/08/20 04:53:58;;;;;;;4.05;1.90;;;;;;;21.46;54.90;99832.50;10398234;28;20354;-60
2022/08/20 04:59:00;;;;;;;5.22;1.92;;;;;;;21.50;54.77;99834.69;10397978;28;20125;-60
2022/08/20 05:04:02;;;;;;;4.85;2.28;;;;;;;21.42;54.97;99845.31;10398265;28;20140;-59
2022/08/20 05:09:04;;;;;;;3.45;2.17;;;;;;;21.43;55.11;99844.31;10398081;28;20053;-59
2022/08/20 05:14:07;;;;;;;3.88;2.25;;;;;;;21.56;55.03;99855.31;10398151;28;20053;-59
2022/08/20 05:19:11;;;;;;;3.30;2.25;;;;;;;21.61;54.75;99857.50;10397587;28;20041;-59
2022/08/20 05:24:13;;;;;;;5.15;2.53;;;;;;;21.66;54.74;99865.84;10397369;28;20107;-60
2022/08/20 05:29:15;;;;;;;6.20;2.20;;;;;;;21.72;54.41;99859.84;10397079;28;20428;-59
2022/08/20 05:34:17;;;;;;;4.18;2.13;;;;;;;21.74;55.25;99856.00;10397081;28;20075;-60
2022/08/20 05:39:21;;;;;;;3.55;2.10;;;;;;;21.78;55.19;99864.53;10396843;28;20049;-59
2022/08/20 05:44:23;;;;;;;4.57;2.40;;;;;;;21.76;55.09;99856.66;10397014;28;20624;-59
2022/08/20 05:49:24;;;;;;;5.30;2.30;;;;;;;21.81;54.73;99864.16;10396448;28;20055;-60
2022/08/20 05:54:26;;;;;;;4.57;2.50;;;;;;;21.81;54.74;99872.16;10394543;28;20084;-60
2022/08/20 05:59:28;;;;;;;4.45;2.50;;;;;;;21.78;54.86;99880.50;10395861;28;20076;-59
2022/08/20 06:04:30;;;;;;;6.82;3.00;;;;;;;21.83;54.57;99880.81;10395310;28;20083;-60
2022/08/20 06:09:33;;;;;;;4.82;2.60;;;;;;;21.74;54.91;99887.94;10394718;28;20097;-60
2022/08/20 06:14:35;;;;;;;3.25;2.60;;;;;;;21.78;55.05;99881.28;10395281;28;20137;-60
2022/08/20 06:19:37;;;;;;;5.28;2.60;;;;;;;21.68;54.97;99885.13;10395206;28;20322;-60
2022/08/20 06:24:43;;;;;;;3.38;2.40;;;;;;;21.89;54.76;99890.81;10394968;28;20132;-60
2022/08/20 06:29:46;;;;;;;4.35;2.75;;;;;;;22.17;54.17;99881.53;10394880;28;20140;-60
2022/08/20 06:34:48;;;;;;;4.32;2.88;;;;;;;22.38;53.68;99878.34;10394788;28;20135;-60
2022/08/20 06:39:52;;;;;;;4.18;2.40;;;;;;;22.72;52.85;99872.81;10394364;28;20151;-59
2022/08/20 06:44:54;;;;;;;3.40;2.50;;;;;;;23.13;51.70;99869.00;10394096;28;20060;-59
2022/08/20 06:49:56;;;;;;;4.80;2.85;;;;;;;23.42;50.76;99864.75;10394186;28;20321;-60
2022/08/20 06:54:57;;;;;;;3.92;2.55;;;;;;;23.65;49.92;99866.63;10393869;28;20057;-60
2022/08/20 06:59:59;;;;;;;4.45;2.28;;;;;;;23.97;49.14;99867.22;10392274;28;20054;-59
2022/08/20 07:05:02;;;;;;;6.95;2.92;;;;;;;24.18;48.60;99862.03;10393886;28;20045;-60
2022/08/20 07:10:06;;;;;;;5.47;2.67;;;;;;;24.13;48.43;99859.09;10392907;28;20099;-60
2022/08/20 07:15:10;;;;;;;3.92;2.80;;;;;;;24.15;48.51;99874.94;10393722;28;20057;-60
2022/08/20 07:20:14;;;;;;;4.30;2.67;;;;;;;23.72;49.50;99887.09;10393309;28;20409;-60
2022/08/20 07:25:18;;;;;;;4.13;3.20;;;;;;;23.33;50.42;99888.97;10392976;28;20041;-59
2022/08/20 07:36:00;;;;;;;4.80;2.83;;;;;;;23.20;50.59;99894.84;10393208;28;20060;-59
2022/08/20 07:41:11;;;;;;;4.82;3.10;;;;;;;23.37;50.49;99895.63;10392496;28;20497;-60
2022/08/20 07:46:16;;;;;;;4.72;3.17;;;;;;;23.48;50.46;99893.41;10392405;28;20058;-59
2022/08/20 07:51:21;;;;;;;4.90;2.88;;;;;;;23.42;51.06;99899.44;10392558;28;20050;-60
2022/08/20 07:56:23;;;;;;;4.45;2.90;;;;;;;23.78;49.90;99902.41;10374138;28;20321;-60
2022/08/20 08:01:29;;;;;;;4.32;2.33;;;;;;;24.26;48.69;99903.94;10392450;28;20045;-59
2022/08/20 08:06:31;;;;;;;5.65;2.45;;;;;;;24.83;46.88;99904.25;10392046;28;20077;-59
2022/08/20 08:11:36;;;;;;;4.57;2.25;;;;;;;25.92;44.60;99891.63;10390760;28;20425;-60
2022/08/20 08:16:38;;;;;;;3.67;2.20;;;;;;;26.52;43.23;99883.13;10392004;28;20059;-60
2022/08/20 08:21:40;;;;;;;3.97;2.20;;;;;;;26.75;42.09;99897.13;10391748;28;20071;-60
2022/08/20 08:26:43;;;;;;;4.70;1.85;;;;;;;25.83;43.45;99896.28;10390422;28;20050;-60
2022/08/20 08:31:44;;;;;;;3.22;2.10;;;;;;;26.95;41.70;99884.69;10394535;28;20056;-60
2022/08/20 08:36:46;;;;;;;3.53;2.10;;;;;;;28.58;38.22;99878.09;10399399;28;20045;-60
2022/08/20 08:41:50;;;;;;;4.03;1.90;;;;;;;28.04;39.21;99883.66;10398870;28;20061;-59
2022/08/20 08:46:56;;;;;;;7.43;2.45;;;;;;;26.74;41.34;99891.97;10399106;28;20053;-60
2022/08/20 08:52:03;;;;;;;4.75;2.05;;;;;;;26.20;42.20;99894.41;10398836;28;20155;-60
2022/08/20 08:57:08;;;;;;;3.83;1.70;;;;;;;25.63;42.94;99892.56;10398290;28;20052;-60
2022/08/20 09:02:19;;;;;;;3.63;1.83;;;;;;;25.27;43.44;99890.84;10398279;28;20136;-60
2022/08/20 09:07:24;;;;;;;3.70;1.70;;;;;;;24.75;44.20;99899.00;10398242;28;20470;-60
2022/08/20 09:12:26;;;;;;;2.78;1.70;;;;;;;25.58;42.41;99891.47;10397880;28;20055;-60
2022/08/20 09:17:28;;;;;;;2.72;1.70;;;;;;;26.98;39.95;99873.53;10397332;28;20145;-60
2022/08/20 09:22:32;;;;;;;3.63;1.60;;;;;;;27.14;39.00;99877.72;10397350;28;20209;-60
2022/08/20 09:27:33;;;;;;;2.80;1.60;;;;;;;27.84;37.74;99872.88;10397066;28;20301;-60
2022/08/20 09:32:36;;;;;;;2.65;1.50;;;;;;;28.10;37.49;99866.69;10397205;28;20041;-60
2022/08/20 09:37:38;;;;;;;3.00;1.55;;;;;;;27.77;37.92;99863.16;10397005;28;20057;-60
2022/08/20 09:42:39;;;;;;;5.40;1.67;;;;;;;26.87;39.17;99866.06;10395478;28;20053;-60
2022/08/20 09:47:42;;;;;;;5.55;2.20;;;;;;;26.22;40.33;99881.63;10396586;28;20049;-60
2022/08/20 09:52:59;;;;;;;6.45;1.90;;;;;;;25.66;41.36;99884.16;10396280;28;20053;-59
2022/08/20 09:58:05;;;;;;;4.13;1.70;;;;;;;25.79;41.14;99878.91;10395708;28;20060;-60
2022/08/20 10:03:07;;;;;;;5.15;1.80;;;;;;;26.29;40.27;99867.25;10395701;28;20079;-60
2022/08/20 10:08:10;;;;;;;6.00;1.70;;;;;;;26.43;40.08;99870.84;10395390;28;20059;-60
2022/08/20 10:13:11;;;;;;;3.35;1.60;;;;;;;26.93;38.08;99867.94;10395342;28;20132;-60
2022/08/20 10:18:15;;;;;;;2.22;1.50;;;;;;;28.29;35.39;99863.22;10395535;28;20075;-60
2022/08/20 10:23:19;;;;;;;2.22;1.40;;;;;;;28.44;34.47;99857.63;10395163;28;20068;-60
2022/08/20 10:28:20;;;;;;;3.20;1.50;;;;;;;27.78;36.06;99862.94;10377276;28;20340;-60
2022/08/20 10:33:22;;;;;;;2.95;1.70;;;;;;;27.46;36.13;99859.09;10395055;28;20049;-60
2022/08/20 10:38:24;;;;;;;2.42;1.38;;;;;;;27.88;35.41;99849.09;10394860;28;20053;-60
2022/08/20 10:43:26;;;;;;;3.58;1.40;;;;;;;27.88;34.92;99854.47;10394512;28;20064;-60
2022/08/20 10:48:28;;;;;;;2.90;1.38;;;;;;;28.13;33.14;99851.00;10394434;28;20135;-60
2022/08/20 10:53:30;;;;;;;2.30;1.20;;;;;;;27.67;33.06;99852.75;10393878;28;20308;-60
2022/08/20 10:58:32;;;;;;;1.60;1.30;;;;;;;28.10;33.43;99839.81;10394353;28;20061;-60
2022/08/20 11:03:40;;;;;;;3.23;1.50;;;;;;;28.27;33.05;99838.38;10392275;28;20053;-60
2022/08/20 11:08:42;;;;;;;2.10;1.20;;;;;;;28.80;31.74;99848.03;10393728;28;20064;-60
2022/08/20 11:13:43;;;;;;;2.25;1.10;;;;;;;28.90;31.15;99836.84;10393866;28;20055;-60
2022/08/20 11:18:45;;;;;;;2.83;1.10;;;;;;;28.80;30.04;99834.59;10393540;28;20049;-60
2022/08/20 11:23:48;;;;;;;1.15;1.00;;;;;;;28.98;29.02;99834.75;10393352;28;20095;-60
2022/08/20 11:28:50;;;;;;;1.98;1.20;;;;;;;28.90;28.38;99839.56;10393005;28;20455;-60
2022/08/20 11:33:51;;;;;;;2.28;1.20;;;;;;;28.61;28.04;99834.63;10393098;28;20053;-60
2022/08/20 11:38:53;;;;;;;2.05;1.23;;;;;;;29.00;27.89;99843.47;10392858;28;20049;-60
2022/08/20 11:43:55;;;;;;;2.45;1.30;;;;;;;28.74;27.40;99838.13;10392394;28;20524;-59
2022/08/20 11:49:16;;;;;;;2.45;1.50;;;;;;;28.48;27.69;99837.34;10392806;28;20770;-60
2022/08/20 11:54:18;;;;;;;3.58;1.60;;;;;;;27.95;29.40;99833.81;10392367;28;20061;-60
2022/08/20 11:59:21;;;;;;;5.03;1.23;;;;;;;28.30;29.20;99837.16;10392692;28;20104;-59
2022/08/20 12:04:23;;;;;;;3.30;1.55;;;;;;;28.35;30.31;99824.72;10392135;28;20049;-59
2022/08/20 12:09:27;;;;;;;3.92;1.55;;;;;;;28.11;30.45;99828.03;10400029;28;20057;-60
2022/08/20 12:14:29;;;;;;;4.75;1.60;;;;;;;27.75;30.61;99835.66;10398785;28;20080;-60
2022/08/20 12:19:31;;;;;;;3.75;1.77;;;;;;;27.79;29.38;99834.22;10400190;28;20054;-60
2022/08/20 12:24:33;;;;;;;3.83;1.55;;;;;;;27.95;29.63;99823.06;10399649;28;20042;-59
2022/08/20 12:29:36;;;;;;;3.53;1.60;;;;;;;28.26;29.30;99825.94;10400093;28;20050;-60
2022/08/20 12:34:40;;;;;;;3.10;1.50;;;;;;;28.04;29.98;99827.19;10399550;28;20045;-60
2022/08/20 12:39:45;;;;;;;5.68;1.60;;;;;;;27.92;30.17;99824.28;10399177;28;20075;-60
2022/08/20 12:44:49;;;;;;;4.90;1.67;;;;;;;27.54;30.13;99816.97;10399843;28;20057;-60
2022/08/20 12:49:54;;;;;;;4.43;1.65;;;;;;;27.71;29.49;99837.88;10398588;28;20047;-60
2022/08/20 12:54:57;;;;;;;6.13;1.60;;;;;;;27.91;29.19;99824.50;10398727;28;20072;-60
2022/08/20 13:00:21;;;;;;;1.90;1.40;;;;;;;27.95;28.80;99831.13;10398287;28;20064;-60
2022/08/20 13:05:25;;;;;;;3.70;1.35;;;;;;;27.97;28.76;99834.44;10398162;28;20052;-60
2022/08/20 13:10:32;;;;;;;3.13;1.48;;;;;;;27.80;29.11;99835.84;10398670;28;20087;-59
2022/08/20 13:15:33;;;;;;;2.13;1.30;;;;;;;27.83;28.01;99843.53;10397977;28;20124;-60
2022/08/20 13:20:37;;;;;;;6.43;1.40;;;;;;;27.38;28.07;99839.66;10397393;28;20057;-60
2022/08/20 13:25:38;;;;;;;2.00;1.30;;;;;;;26.84;29.19;99833.41;10397886;28;20232;-60
2022/08/20 13:30:40;;;;;;;3.55;1.50;;;;;;;26.72;29.09;99834.97;10397075;28;20081;-60
2022/08/20 13:35:42;;;;;;;5.60;1.50;;;;;;;27.16;28.80;99822.00;10397219;28;20049;-60
2022/08/20 13:40:43;;;;;;;5.47;1.60;;;;;;;27.39;28.85;99828.72;10396938;28;20214;-60
2022/08/20 13:45:49;;;;;;;2.67;1.50;;;;;;;27.56;28.03;99831.88;10397072;28;20057;-60
2022/08/20 13:50:51;;;;;;;5.82;1.80;;;;;;;27.37;28.07;99830.78;10395405;28;20126;-60
2022/08/20 13:55:55;;;;;;;3.03;1.80;;;;;;;27.40;28.49;99832.25;10396230;28;20060;-60
2022/08/20 14:00:56;;;;;;;4.00;1.75;;;;;;;27.63;28.01;99837.25;10396068;28;20049;-60
2022/08/20 14:05:59;;;;;;;3.42;1.80;;;;;;;27.46;27.88;99836.78;10394825;28;20738;-60
2022/08/20 14:11:01;;;;;;;2.70;1.60;;;;;;;27.29;28.39;99833.66;10396282;28;20475;-60
2022/08/20 14:16:03;;;;;;;5.72;1.80;;;;;;;27.16;28.39;99838.13;10395522;28;20493;-60
2022/08/20 14:21:05;;;;;;;3.20;2.00;;;;;;;27.35;28.25;99843.56;10393859;28;20060;-59
2022/08/20 14:26:07;;;;;;;3.50;1.73;;;;;;;27.55;28.26;99843.63;10395043;28;20413;-60
2022/08/20 14:31:08;;;;;;;2.90;1.80;;;;;;;27.54;28.22;99843.84;10394398;28;20069;-60
2022/08/20 14:36:10;;;;;;;4.25;2.03;;;;;;;27.48;28.52;99843.59;10394512;28;20056;-60
2022/08/20 14:41:11;;;;;;;9.38;2.10;;;;;;;27.40;28.21;99854.53;10394314;28;20083;-60
2022/08/20 14:46:13;;;;;;;2.70;1.70;;;;;;;27.67;28.45;99847.38;10394474;28;20522;-60
2022/08/20 14:51:15;;;;;;;6.80;1.77;;;;;;;27.48;28.30;99864.28;10394507;28;20041;-60
2022/08/20 14:56:19;;;;;;;4.30;1.95;;;;;;;27.30;28.55;99848.72;10394567;28;20918;-60
2022/08/20 15:01:21;;;;;;;6.18;2.40;;;;;;;27.37;28.55;99852.25;10393449;28;20045;-60
2022/08/20 15:06:23;;;;;;;7.93;2.15;;;;;;;27.27;28.25;99850.97;10393440;28;20053;-60
2022/08/20 15:11:24;;;;;;;4.95;2.03;;;;;;;27.18;28.48;99869.13;10393585;28;20049;-60
2022/08/20 15:16:28;;;;;;;6.47;2.13;;;;;;;27.35;28.36;99859.69;10393330;28;20072;-60
2022/08/20 15:21:30;;;;;;;5.50;2.10;;;;;;;27.31;28.32;99855.75;10393041;28;20045;-60
2022/08/20 15:26:46;;;;;;;7.13;2.05;;;;;;;27.57;27.81;99856.84;10393294;28;20101;-60
2022/08/20 15:31:48;;;;;;;6.70;2.08;;;;;;;27.54;27.47;99862.63;10393209;28;20059;-60
2022/08/20 15:36:49;;;;;;;4.70;2.25;;;;;;;27.22;27.94;99862.31;10392618;28;20057;-60
2022/08/20 15:41:51;;;;;;;6.32;2.20;;;;;;;27.20;28.07;99859.00;10391726;28;20057;-60
2022/08/20 15:46:53;;;;;;;5.55;2.20;;;;;;;26.97;27.85;99860.31;10392602;28;20054;-60
2022/08/20 15:51:54;;;;;;;7.78;2.25;;;;;;;27.04;27.80;99867.38;10392268;28;20060;-60
2022/08/20 15:57:01;;;;;;;4.65;2.08;;;;;;;27.03;27.73;99864.88;10392426;28;20055;-59
2022/08/20 16:02:37;;;;;;;5.82;2.30;;;;;;;26.81;28.02;99856.13;10392177;28;20060;-60
2022/08/20 16:08:10;;;;;;;5.32;2.30;;;;;;;26.90;28.21;99857.59;10392290;28;20058;-60
2022/08/20 16:13:37;;;;;;;5.47;2.30;;;;;;;27.03;28.13;99860.34;10392205;28;20063;-60
2022/08/20 16:18:40;;;;;;;4.28;2.38;;;;;;;26.94;28.85;99855.31;10392104;28;20045;-60
2022/08/20 16:23:42;;;;;;;6.32;2.40;;;;;;;26.92;28.72;99863.59;10391957;28;20053;-60
2022/08/20 16:29:08;;;;;;;6.35;2.50;;;;;;;26.66;28.59;99864.28;10390865;28;20054;-60
2022/08/20 16:34:22;;;;;;;5.88;2.50;;;;;;;26.65;28.83;99873.31;10391914;28;20417;-60
2022/08/20 16:39:50;;;;;;;5.00;2.38;;;;;;;26.50;29.06;99863.72;10392113;28;20553;-59
2022/08/20 16:44:54;;;;;;;5.20;2.67;;;;;;;26.55;28.76;99872.84;10391720;28;20481;-60
2022/08/20 16:50:00;;;;;;;5.10;2.50;;;;;;;26.25;28.96;99870.50;10391505;28;20045;-60
2022/08/20 16:55:02;;;;;;;5.47;2.90;;;;;;;26.16;29.27;99879.72;10397007;28;20152;-60
2022/08/20 17:00:05;;;;;;;6.75;2.63;;;;;;;26.28;29.56;99881.66;10398559;28;20045;-60
2022/08/20 17:05:07;;;;;;;5.88;2.88;;;;;;;26.05;29.92;99885.59;10398528;28;20064;-60
2022/08/20 17:10:16;;;;;;;5.55;2.90;;;;;;;25.98;30.13;99882.84;10397812;28;20516;-60
2022/08/20 17:15:24;;;;;;;5.00;2.70;;;;;;;25.96;30.44;99898.28;10396806;28;20053;-60
2022/08/20 17:20:26;;;;;;;7.13;3.20;;;;;;;25.84;30.20;99892.59;10397710;28;20416;-60
2022/08/20 17:25:36;;;;;;;8.25;3.17;;;;;;;25.67;30.25;99901.88;10397378;28;20493;-59
2022/08/20 17:30:38;;;;;;;6.65;2.85;;;;;;;25.54;30.19;99909.78;10397492;28;20055;-60
2022/08/20 17:35:42;;;;;;;9.40;2.97;;;;;;;25.38;30.78;99907.31;10397753;28;20136;-60
2022/08/20 17:40:44;;;;;;;7.18;2.92;;;;;;;25.16;30.59;99910.06;10396698;28;20045;-59
2022/08/20 17:45:50;;;;;;;8.27;2.97;;;;;;;25.14;30.54;99906.75;10396736;28;20061;-60
2022/08/20 17:50:52;;;;;;;6.00;2.83;;;;;;;24.92;30.66;99911.16;10396497;28;20051;-59
2022/08/20 17:56:00;;;;;;;7.57;2.92;;;;;;;24.73;31.43;99909.88;10395875;28;20432;-59
2022/08/20 18:01:03;;;;;;;6.45;2.90;;;;;;;24.61;31.47;99921.16;10396065;28;20137;-60
2022/08/20 18:06:16;;;;;;;8.52;2.80;;;;;;;24.47;31.36;99919.28;10395062;28;20060;-59
2022/08/20 18:11:28;;;;;;;10.43;3.50;;;;;;;24.35;31.83;99924.22;10395977;28;20775;-60
2022/08/20 18:16:56;;;;;;;9.23;3.25;;;;;;;24.10;32.45;99928.91;10395435;28;20557;-59
2022/08/20 18:22:05;;;;;;;7.32;2.88;;;;;;;23.85;32.69;99935.41;10395476;28;20057;-60
2022/08/20 18:27:13;;;;;;;6.45;2.75;;;;;;;23.62;33.14;99939.03;10395279;28;20051;-59
2022/08/20 18:32:35;;;;;;;8.57;2.85;;;;;;;23.43;33.14;99945.66;10394370;28;20080;-60
2022/08/20 18:37:37;;;;;;;11.43;3.10;;;;;;;23.20;33.43;99953.56;10394417;28;20056;-60
2022/08/20 18:42:39;;;;;;;7.00;3.10;;;;;;;23.09;33.89;99958.41;10388022;28;20041;-59
2022/08/20 18:47:44;;;;;;;7.70;2.92;;;;;;;22.94;34.11;99960.97;10386389;28;20068;-60
2022/08/20 18:53:03;;;;;;;8.05;3.35;;;;;;;22.66;34.66;99968.44;10391280;28;20045;-60
2022/08/20 18:58:09;;;;;;;8.00;2.70;;;;;;;22.47;34.84;99971.47;10389827;28;20107;-60
2022/08/20 19:03:25;;;;;;;8.07;2.95;;;;;;;22.24;35.10;99978.44;10389133;28;20514;-59
2022/08/20 19:08:44;;;;;;;12.95;3.25;;;;;;;22.17;35.54;99982.75;10388512;28;20077;-59
2022/08/20 19:14:04;;;;;;;8.93;3.03;;;;;;;22.09;35.68;99985.41;10390447;28;20059;-59
2022/08/20 19:19:14;;;;;;;9.15;2.80;;;;;;;22.09;36.39;99989.94;10389744;28;21054;-59
2022/08/20 19:24:24;;;;;;;6.57;2.70;;;;;;;22.08;36.49;99989.09;10388255;28;20549;-59
2022/08/20 19:29:29;;;;;;;10.98;2.80;;;;;;;22.01;36.45;99993.34;10389950;28;20071;-59
2022/08/20 19:34:32;;;;;;;7.28;3.00;;;;;;;21.82;37.57;99988.31;10387702;28;20053;-59
2022/08/20 19:39:35;;;;;;;8.55;2.88;;;;;;;21.70;37.17;99995.75;10385681;28;20412;-59
2022/08/20 19:44:42;;;;;;;7.32;2.80;;;;;;;21.45;37.98;100004.66;10391719;28;20056;-59
2022/08/20 19:50:22;;;;;;;8.25;3.10;;;;;;;21.25;38.46;100000.53;10390270;28;20077;-59
2022/08/20 19:55:28;;;;;;;8.10;2.92;;;;;;;21.25;38.64;100002.34;10390970;28;20328;-60
2022/08/20 20:00:39;;;;;;;8.32;2.88;;;;;;;20.92;39.19;99999.50;10389819;28;20057;-59
2022/08/20 20:06:08;;;;;;;6.88;2.75;;;;;;;20.81;39.04;100001.53;10391319;28;20423;-60
2022/08/20 20:11:23;;;;;;;8.23;3.45;;;;;;;20.73;39.04;99999.66;10375507;28;20119;-59
2022/08/20 20:16:25;;;;;;;8.20;3.05;;;;;;;20.67;39.45;100005.59;10390382;28;20052;-59
2022/08/20 20:21:42;;;;;;;10.85;3.05;;;;;;;20.53;39.40;99992.00;10389405;28;20053;-60
2022/08/20 20:26:47;;;;;;;10.23;3.55;;;;;;;20.27;39.79;99994.59;10390947;28;20044;-60
2022/08/20 20:31:56;;;;;;;6.40;2.97;;;;;;;20.14;40.08;99988.81;10397618;28;20053;-60
2022/08/20 20:37:08;;;;;;;8.75;2.95;;;;;;;20.07;40.92;99991.22;10393707;28;20048;-60
2022/08/20 20:42:24;;;;;;;11.10;3.40;;;;;;;20.00;40.64;99987.53;10395770;28;20045;-60
2022/08/20 20:47:33;;;;;;;7.50;3.20;;;;;;;19.76;40.78;99999.66;10391311;28;20076;-60
2022/08/20 20:52:47;;;;;;;8.88;3.55;;;;;;;19.67;41.27;100003.19;10389296;28;20487;-60
2022/08/20 20:57:51;;;;;;;10.70;3.28;;;;;;;19.58;41.26;99993.47;10386198;28;20050;-60
2022/08/20 21:02:53;;;;;;;6.95;3.08;;;;;;;19.52;41.84;99996.72;10387997;28;20413;-60
2022/08/20 21:07:58;;;;;;;8.98;3.30;;;;;;;19.42;41.96;100005.53;10389668;28;20235;-60
2022/08/20 21:13:02;;;;;;;8.23;3.20;;;;;;;19.27;42.39;100001.69;10386870;28;20063;-60
2022/08/20 21:18:06;;;;;;;7.93;3.20;;;;;;;19.24;42.61;100009.09;10386968;28;20052;-59
2022/08/20 21:23:08;;;;;;;9.93;3.20;;;;;;;19.13;42.66;100003.97;10386708;28;20056;-60
2022/08/20 21:28:10;;;;;;;8.27;3.35;;;;;;;18.95;43.37;99995.88;10370507;28;20056;-60
2022/08/20 21:33:12;;;;;;;7.68;3.13;;;;;;;18.84;43.41;100004.00;10385621;28;20416;-60
2022/08/20 21:38:14;;;;;;;10.27;3.08;;;;;;;18.73;43.52;100006.00;10388748;28;20394;-60
2022/08/20 21:43:15;;;;;;;8.77;2.88;;;;;;;18.77;43.68;100008.19;10389159;28;20050;-60
2022/08/20 21:48:19;;;;;;;9.25;3.30;;;;;;;18.84;43.17;100008.47;10387095;28;20049;-59
2022/08/20 21:53:21;;;;;;;8.63;3.10;;;;;;;18.59;43.88;100017.84;10385506;28;20050;-59
2022/08/20 21:58:23;;;;;;;10.93;2.97;;;;;;;18.58;44.20;100024.13;10368463;28;20050;-60
2022/08/20 22:03:28;;;;;;;7.80;3.20;;;;;;;18.60;44.02;100019.53;10388035;28;20053;-59
2022/08/20 22:08:32;;;;;;;6.85;3.13;;;;;;;18.56;44.34;100023.44;10387652;28;20052;-59
2022/08/20 22:13:35;;;;;;;9.23;2.90;;;;;;;18.48;44.85;100018.00;10383960;28;20050;-60
2022/08/20 22:18:37;;;;;;;7.45;3.13;;;;;;;18.32;44.76;100021.19;10388001;28;20060;-60
2022/08/20 22:23:39;;;;;;;7.85;3.10;;;;;;;18.19;45.11;100030.34;10386169;28;20185;-60
2022/08/20 22:28:41;;;;;;;8.82;3.40;;;;;;;18.16;45.41;100025.31;10384288;28;20124;-60
2022/08/20 22:33:43;;;;;;;8.57;3.30;;;;;;;17.68;45.69;100023.41;10386655;28;20042;-59
2022/08/20 22:38:45;;;;;;;8.23;3.03;;;;;;;17.66;46.28;100025.34;10387974;28;20060;-60
2022/08/20 22:43:54;;;;;;;;;;;;;;;17.36;46.46;100033.31;10385428;28;20049;-59
2022/08/20 22:48:58;;;;;;;10.45;3.20;;;;;;;17.56;46.04;100024.47;10384911;28;19925;-60
2022/08/20 22:54:02;;;;;;;7.70;3.20;;;;;;;17.60;45.73;100036.47;10374603;28;20405;-60
2022/08/20 22:59:04;;;;;;;11.35;3.22;;;;;;;17.62;45.74;100028.41;10384715;28;20052;-60
2022/08/20 23:04:12;;;;;;;9.27;2.90;;;;;;;17.56;46.25;100031.56;10383593;28;20049;-59
2022/08/20 23:09:14;;;;;;;8.18;3.30;;;;;;;17.47;46.31;100030.56;10383773;28;20055;-60
2022/08/20 23:14:21;;;;;;;11.13;3.67;;;;;;;17.43;46.81;100034.44;10381982;28;20191;-60
2022/08/20 23:19:27;;;;;;;9.30;3.20;;;;;;;17.39;46.66;100034.81;10382997;28;20505;-59
2022/08/20 23:24:29;;;;;;;7.35;3.00;;;;;;;17.29;47.25;100029.47;10383039;28;20056;-60
2022/08/20 23:29:31;;;;;;;9.20;3.58;;;;;;;17.23;47.86;100035.28;10383882;28;20064;-60
2022/08/20 23:34:33;;;;;;;7.07;3.20;;;;;;;17.12;47.73;100039.81;10384539;28;20140;-60
2022/08/20 23:39:36;;;;;;;8.48;3.30;;;;;;;16.70;48.55;100031.03;10384774;28;20700;-59
2022/08/20 23:44:38;;;;;;;8.48;3.42;;;;;;;16.66;48.83;100029.63;10384819;28;20045;-59